createdAt,value
2023-04-16T00:00:18.178Z,1013.040523
2023-04-16T00:05:17.191Z,1013.049348
2023-04-16T00:10:17.253Z,1013.018886
2023-04-16T00:15:17.499Z,1013.000238
2023-04-16T00:20:17.524Z,1013.019701
2023-04-16T00:25:17.179Z,1013.053505
2023-04-16T00:30:17.163Z,1013.097225
2023-04-16T00:35:17.529Z,1013.140584
2023-04-16T00:40:17.339Z,1013.138604
2023-04-16T00:45:17.217Z,1013.208881
2023-04-16T00:50:17.480Z,1013.241521
2023-04-16T00:55:17.484Z,1013.235403
2023-04-16T01:00:17.165Z,1013.247806
2023-04-16T01:05:17.204Z,1013.233748
2023-04-16T01:10:17.657Z,1013.287387
2023-04-16T01:15:17.256Z,1013.312309
2023-04-16T01:20:17.416Z,1013.378241
2023-04-16T01:25:17.616Z,1013.370098
2023-04-16T01:30:17.606Z,1013.384172
2023-04-16T01:35:17.479Z,1013.384719
2023-04-16T01:40:17.583Z,1013.441764
2023-04-16T01:45:17.358Z,1013.430893
2023-04-16T01:50:17.278Z,1013.451774
2023-04-16T01:55:17.664Z,1013.451711
2023-04-16T02:00:17.406Z,1013.463140
2023-04-16T02:05:17.362Z,1013.510708
2023-04-16T02:10:17.386Z,1013.561380
2023-04-16T02:15:17.678Z,1013.551261
2023-04-16T02:20:17.331Z,1013.570087
2023-04-16T02:25:17.788Z,1013.569881
2023-04-16T02:30:17.299Z,1013.585601
2023-04-16T02:35:17.285Z,1013.622644
2023-04-16T02:40:17.217Z,1013.638637
2023-04-16T02:45:17.302Z,1013.662151
2023-04-16T02:50:17.298Z,1013.729252
2023-04-16T02:55:17.259Z,1013.736947
2023-04-16T03:00:17.644Z,1013.789781
2023-04-16T03:05:17.192Z,1013.842342
2023-04-16T03:10:17.327Z,1013.890824
2023-04-16T03:15:17.302Z,1013.937816
2023-04-16T03:20:17.238Z,1013.947401
2023-04-16T03:25:17.347Z,1013.929588
2023-04-16T03:30:17.272Z,1013.978540
2023-04-16T03:35:17.382Z,1014.014936
2023-04-16T03:40:17.142Z,1014.009636
2023-04-16T03:45:17.162Z,1014.060644
2023-04-16T03:50:17.584Z,1014.024583
2023-04-16T03:55:17.454Z,1014.058825
2023-04-16T04:00:17.305Z,1014.112060
2023-04-16T04:05:17.163Z,1014.135133
2023-04-16T04:10:19.979Z,1014.162881
2023-04-16T04:15:19.753Z,1014.271220
2023-04-16T04:20:20.181Z,1014.317080
2023-04-16T04:25:19.572Z,1014.342663
2023-04-16T04:30:20.005Z,1014.365540
2023-04-16T04:35:19.723Z,1014.383779
2023-04-16T04:40:19.657Z,1014.364170
2023-04-16T04:45:17.180Z,1014.438740
2023-04-16T04:50:17.116Z,1014.548593
2023-04-16T04:55:17.152Z,1014.598319
2023-04-16T05:00:17.132Z,1014.712108
2023-04-16T05:05:17.130Z,1014.746230
2023-04-16T05:10:17.316Z,1014.800771
2023-04-16T05:15:17.647Z,1014.873059
2023-04-16T05:20:17.402Z,1014.922368
2023-04-16T05:25:17.302Z,1014.987526
2023-04-16T05:30:17.512Z,1015.037427
2023-04-16T05:35:17.806Z,1015.061224
2023-04-16T05:40:17.290Z,1015.080039
2023-04-16T05:45:17.432Z,1015.092734
2023-04-16T05:50:17.118Z,1015.124278
2023-04-16T05:55:17.565Z,1015.171785
2023-04-16T06:00:17.387Z,1015.191666
2023-04-16T06:05:17.287Z,1015.188130
2023-04-16T06:10:17.104Z,1015.228090
2023-04-16T06:15:17.222Z,1015.267313
2023-04-16T06:20:17.083Z,1015.301669
2023-04-16T06:25:18.295Z,1015.297261
2023-04-16T06:30:17.115Z,1015.367593
2023-04-16T06:35:17.064Z,1015.404048
2023-04-16T06:40:17.091Z,1015.424218
2023-04-16T06:45:17.253Z,1015.415923
2023-04-16T06:50:17.061Z,1015.457755
2023-04-16T06:55:17.054Z,1015.468893
2023-04-16T07:00:17.629Z,1015.502296
2023-04-16T07:05:17.068Z,1015.526325
2023-04-16T07:10:16.997Z,1015.520183
2023-04-16T07:15:17.073Z,1015.574405
2023-04-16T07:20:17.098Z,1015.617721
2023-04-16T07:25:17.199Z,1015.615086
2023-04-16T07:30:17.117Z,1015.592272
2023-04-16T07:35:17.281Z,1015.636871
2023-04-16T07:40:17.065Z,1015.626888
2023-04-16T07:45:17.555Z,1015.681558
2023-04-16T07:50:17.201Z,1015.716421
2023-04-16T07:55:18.512Z,1015.702280
2023-04-16T08:00:17.278Z,1015.729952
2023-04-16T08:05:17.197Z,1015.828968
2023-04-16T08:10:17.066Z,1015.825415
2023-04-16T08:15:17.218Z,1015.808557
2023-04-16T08:20:19.223Z,1015.782143
2023-04-16T08:25:17.052Z,1015.805409
2023-04-16T08:30:17.138Z,1015.866636
2023-04-16T08:35:17.429Z,1015.962204
2023-04-16T08:40:17.307Z,1016.084353
2023-04-16T08:45:17.213Z,1016.124926
2023-04-16T08:50:16.988Z,1016.119322
2023-04-16T08:55:17.452Z,1016.124113
2023-04-16T09:00:17.045Z,1016.190399
2023-04-16T09:05:17.186Z,1016.151965
2023-04-16T09:10:17.395Z,1016.157577
2023-04-16T09:15:17.191Z,1016.183383
2023-04-16T09:20:17.656Z,1016.258390
2023-04-16T09:25:17.406Z,1016.294664
2023-04-16T09:30:17.046Z,1016.264458
2023-04-16T09:35:17.578Z,1016.276500
2023-04-16T09:40:17.211Z,1016.250763
2023-04-16T09:45:17.049Z,1016.231574
2023-04-16T09:50:18.252Z,1016.273584
2023-04-16T09:55:17.214Z,1016.294587
2023-04-16T10:00:17.265Z,1016.333746
2023-04-16T10:05:17.014Z,1016.357213
2023-04-16T10:10:17.282Z,1016.417012
2023-04-16T10:15:17.416Z,1016.441484
2023-04-16T10:20:17.369Z,1016.500278
2023-04-16T10:25:17.099Z,1016.566700
2023-04-16T10:30:17.673Z,1016.644559
2023-04-16T10:35:17.225Z,1016.662866
2023-04-16T10:40:17.446Z,1016.677122
2023-04-16T10:45:17.164Z,1016.663908
2023-04-16T10:50:17.143Z,1016.659013
2023-04-16T10:55:17.472Z,1016.675349
2023-04-16T11:00:17.230Z,1016.639744
2023-04-16T11:05:16.989Z,1016.620581
2023-04-16T11:10:17.252Z,1016.562973
2023-04-16T11:15:17.072Z,1016.624911
2023-04-16T11:20:19.063Z,1016.591716
2023-04-16T11:25:16.906Z,1016.621404
2023-04-16T11:30:17.126Z,1016.656338
2023-04-16T11:35:17.173Z,1016.667937
2023-04-16T11:40:16.938Z,1016.729618
2023-04-16T11:45:16.945Z,1016.776234
2023-04-16T11:50:17.208Z,1016.786091
2023-04-16T11:55:16.919Z,1016.831442
2023-04-16T12:00:16.969Z,1016.854306
2023-04-16T12:05:16.913Z,1016.829030
2023-04-16T12:10:17.039Z,1016.803364
2023-04-16T12:15:16.964Z,1016.745090
2023-04-16T12:20:17.012Z,1016.809988
2023-04-16T12:25:17.265Z,1016.850829
2023-04-16T12:30:17.036Z,1016.892773
2023-04-16T12:35:16.979Z,1016.936654
2023-04-16T12:40:17.240Z,1016.961395
2023-04-16T12:45:17.403Z,1016.967847
2023-04-16T12:50:17.165Z,1017.023998
2023-04-16T12:55:17.308Z,1017.048253
2023-04-16T13:00:17.124Z,1017.077506
2023-04-16T13:05:16.897Z,1017.044269
2023-04-16T13:10:17.377Z,1017.079168
2023-04-16T13:15:17.026Z,1017.084252
2023-04-16T13:20:17.255Z,1017.111615
2023-04-16T13:25:16.967Z,1017.147876
2023-04-16T13:30:17.100Z,1017.238193
2023-04-16T13:35:16.951Z,1017.252846
2023-04-16T13:40:17.180Z,1017.255130
2023-04-16T13:45:17.014Z,1017.250302
2023-04-16T13:50:17.006Z,1017.249034
2023-04-16T13:55:16.872Z,1017.302406
2023-04-16T14:00:17.031Z,1017.354167
2023-04-16T14:05:16.979Z,1017.353660
2023-04-16T14:10:16.912Z,1017.319858
2023-04-16T14:15:16.995Z,1017.331468
2023-04-16T14:20:16.937Z,1017.357560
2023-04-16T14:25:17.041Z,1017.380270
2023-04-16T14:30:17.067Z,1017.421127
2023-04-16T14:35:16.858Z,1017.419302
2023-04-16T14:40:16.885Z,1017.475339
2023-04-16T14:45:17.134Z,1017.474515
2023-04-16T14:50:17.196Z,1017.520760
2023-04-16T14:55:16.990Z,1017.545075
2023-04-16T15:00:17.317Z,1017.585809
2023-04-16T15:05:17.186Z,1017.624136
2023-04-16T15:10:17.087Z,1017.707475
2023-04-16T15:15:17.538Z,1017.756674
2023-04-16T15:20:16.958Z,1017.802049
2023-04-16T15:25:16.918Z,1017.841253
2023-04-16T15:30:17.386Z,1017.857588
2023-04-16T15:35:17.400Z,1017.892797
2023-04-16T15:40:16.992Z,1017.953849
2023-04-16T15:45:16.923Z,1017.977867
2023-04-16T15:50:17.394Z,1018.025897
2023-04-16T15:55:17.075Z,1018.079207
2023-04-16T16:00:17.389Z,1018.155097
2023-04-16T16:05:17.415Z,1018.184864
2023-04-16T16:10:17.114Z,1018.198308
2023-04-16T16:15:17.461Z,1018.250299
2023-04-16T16:20:17.264Z,1018.253764
2023-04-16T16:25:16.918Z,1018.266728
2023-04-16T16:30:16.986Z,1018.315837
2023-04-16T16:35:17.141Z,1018.363921
2023-04-16T16:40:16.875Z,1018.385258
2023-04-16T16:45:16.948Z,1018.411224
2023-04-16T16:50:16.980Z,1018.463079
2023-04-16T16:55:18.661Z,1018.444830
2023-04-16T17:00:17.061Z,1018.479810
2023-04-16T17:05:16.971Z,1018.523986
2023-04-16T17:10:16.935Z,1018.527620
2023-04-16T17:15:19.118Z,1018.602283
2023-04-16T17:20:16.854Z,1018.632810
2023-04-16T17:25:17.361Z,1018.658606
2023-04-16T17:30:17.093Z,1018.725144
2023-04-16T17:35:16.864Z,1018.819673
2023-04-16T17:40:17.045Z,1018.911196
2023-04-16T17:45:16.895Z,1018.989415
2023-04-16T17:50:16.907Z,1019.063787
2023-04-16T17:55:17.155Z,1019.088495
2023-04-16T18:00:16.969Z,1019.149622
2023-04-16T18:05:17.213Z,1019.243302
2023-04-16T18:10:16.901Z,1019.259949
2023-04-16T18:15:17.195Z,1019.328571
2023-04-16T18:20:16.905Z,1019.354442
2023-04-16T18:25:17.094Z,1019.361816
2023-04-16T18:30:23.003Z,1019.428423
2023-04-16T18:35:16.981Z,1019.487655
2023-04-16T18:40:17.167Z,1019.511220
2023-04-16T18:45:21.657Z,1019.525160
2023-04-16T18:50:16.866Z,1019.560767
2023-04-16T18:55:17.159Z,1019.541868
2023-04-16T19:00:16.854Z,1019.575517
2023-04-16T19:05:16.890Z,1019.595106
2023-04-16T19:10:17.644Z,1019.635898
2023-04-16T19:15:16.892Z,1019.694495
2023-04-16T19:20:16.926Z,1019.734539
2023-04-16T19:25:16.964Z,1019.772510
2023-04-16T19:30:17.117Z,1019.815436
2023-04-16T19:35:16.926Z,1019.825635
2023-04-16T19:40:16.815Z,1019.820853
2023-04-16T19:45:16.847Z,1019.824772
2023-04-16T19:50:17.094Z,1019.829153
2023-04-16T19:55:17.156Z,1019.869431
2023-04-16T20:00:16.924Z,1019.849511
2023-04-16T20:05:17.164Z,1019.911093
2023-04-16T20:10:17.126Z,1019.916280
2023-04-16T20:15:17.284Z,1019.960592
2023-04-16T20:20:17.360Z,1019.949710
2023-04-16T20:25:16.922Z,1019.962218
2023-04-16T20:30:16.863Z,1019.954506
2023-04-16T20:35:16.979Z,1019.967243
2023-04-16T20:40:16.920Z,1019.954518
2023-04-16T20:45:16.863Z,1019.966562
2023-04-16T20:50:17.178Z,1019.963108
2023-04-16T20:55:16.889Z,1019.976139
2023-04-16T21:00:16.894Z,1019.963122
2023-04-16T21:05:16.936Z,1020.008246
2023-04-16T21:10:16.991Z,1020.030548
2023-04-16T21:15:16.848Z,1020.045127
2023-04-16T21:20:16.804Z,1020.067082
2023-04-16T21:25:17.180Z,1020.087146
2023-04-16T21:30:16.949Z,1020.090496
2023-04-16T21:35:17.055Z,1020.096401
2023-04-16T21:40:16.968Z,1020.101876
2023-04-16T21:45:17.028Z,1020.094932
2023-04-16T21:50:17.029Z,1020.111548
2023-04-16T21:55:16.967Z,1020.134324
2023-04-16T22:00:18.217Z,1020.087950
2023-04-16T22:05:17.001Z,1020.099130
2023-04-16T22:10:16.966Z,1020.096027
2023-04-16T22:15:16.834Z,1020.068830
2023-04-16T22:20:16.828Z,1020.058349
2023-04-16T22:25:17.188Z,1020.058001
2023-04-16T22:30:16.845Z,1020.049357
2023-04-16T22:35:16.837Z,1020.066943
2023-04-16T22:40:16.934Z,1020.071961
2023-04-16T22:45:16.851Z,1020.077057
2023-04-16T22:50:17.118Z,1020.071547
2023-04-16T22:55:16.842Z,1020.064598
2023-04-16T23:00:17.025Z,1020.059311
2023-04-16T23:05:16.784Z,1020.052758
2023-04-16T23:10:16.866Z,1020.080083
2023-04-16T23:15:16.860Z,1020.066548
2023-04-16T23:20:16.962Z,1020.117144
2023-04-16T23:25:16.913Z,1020.097948
2023-04-16T23:30:17.133Z,1020.105445
2023-04-16T23:35:17.082Z,1020.136221
2023-04-16T23:40:17.000Z,1020.126219
2023-04-16T23:45:16.997Z,1020.114299
2023-04-16T23:50:16.878Z,1020.117090
2023-04-16T23:55:17.162Z,1020.118266
